createdAt,value
2018-06-05T00:00:31.844Z,48.50
2018-06-05T00:03:00.256Z,45.33
2018-06-05T00:05:28.808Z,43.40
2018-06-05T00:07:57.260Z,53.70
2018-06-05T00:10:25.657Z,46.27
2018-06-05T00:12:54.140Z,49.40
2018-06-05T00:15:22.580Z,51.73
2018-06-05T00:17:51.127Z,45.97
2018-06-05T00:20:19.588Z,48.93
2018-06-05T00:22:48.018Z,43.53
2018-06-05T00:25:16.426Z,49.17
2018-06-05T00:27:44.868Z,54.07
2018-06-05T00:30:13.429Z,47.63
2018-06-05T00:32:41.835Z,48.23
2018-06-05T00:35:10.359Z,50.40
2018-06-05T00:37:38.834Z,47.40
2018-06-05T00:40:07.237Z,50.93
2018-06-05T00:42:35.662Z,48.00
2018-06-05T00:45:04.117Z,45.53
2018-06-05T00:47:32.590Z,48.57
2018-06-05T00:50:01.051Z,50.30
2018-06-05T00:52:29.517Z,48.70
2018-06-05T00:54:57.908Z,48.00
2018-06-05T00:57:26.607Z,51.80
2018-06-05T00:59:55.019Z,45.57
2018-06-05T01:02:23.429Z,51.47
2018-06-05T01:04:51.859Z,43.97
2018-06-05T01:07:20.300Z,51.83
2018-06-05T01:09:48.720Z,44.20
2018-06-05T01:12:17.127Z,42.23
2018-06-05T01:14:45.586Z,52.60
2018-06-05T01:17:14.072Z,47.60
2018-06-05T01:19:42.499Z,47.30
2018-06-05T01:22:10.899Z,53.47
2018-06-05T01:24:39.352Z,64.63
2018-06-05T01:27:12.264Z,56.47
2018-06-05T01:29:40.704Z,60.23
2018-06-05T01:32:09.113Z,54.23
2018-06-05T01:34:37.532Z,62.37
2018-06-05T01:37:06.133Z,61.90
2018-06-05T01:39:34.585Z,60.47
2018-06-05T01:42:02.983Z,62.60
2018-06-05T01:44:31.445Z,63.63
2018-06-05T01:47:00.161Z,64.93
2018-06-05T01:49:34.099Z,60.17
2018-06-05T01:52:02.499Z,60.63
2018-06-05T01:54:31.230Z,70.43
2018-06-05T01:56:59.651Z,72.07
2018-06-05T01:59:28.063Z,72.73
2018-06-05T02:01:56.640Z,73.50
2018-06-05T02:04:25.074Z,61.63
2018-06-05T02:06:53.484Z,70.30
2018-06-05T02:09:21.920Z,69.53
2018-06-05T02:11:50.370Z,76.27
2018-06-05T02:14:18.839Z,79.77
2018-06-05T02:16:47.302Z,73.70
2018-06-05T02:19:15.743Z,81.90
2018-06-05T02:21:44.280Z,74.93
2018-06-05T02:24:12.768Z,80.47
2018-06-05T02:26:41.203Z,79.83
2018-06-05T02:29:09.596Z,79.30
2018-06-05T02:31:38.023Z,75.13
2018-06-05T02:34:06.503Z,79.37
2018-06-05T02:36:35.007Z,77.17
2018-06-05T02:39:05.224Z,72.33
2018-06-05T02:41:33.676Z,66.30
2018-06-05T02:44:02.100Z,74.47
2018-06-05T02:46:30.669Z,69.50
2018-06-05T02:48:59.093Z,65.40
2018-06-05T02:51:27.525Z,64.73
2018-06-05T02:53:55.952Z,62.63
2018-06-05T02:56:24.389Z,66.60
2018-06-05T02:58:52.874Z,68.23
2018-06-05T03:01:21.426Z,68.00
2018-06-05T03:03:49.815Z,65.97
2018-06-05T03:06:18.227Z,68.83
2018-06-05T03:08:46.615Z,78.37
2018-06-05T03:11:16.172Z,70.03
2018-06-05T03:13:44.800Z,72.17
2018-06-05T03:16:13.647Z,60.63
2018-06-05T03:18:42.013Z,67.90
2018-06-05T03:21:10.516Z,64.03
2018-06-05T03:23:39.031Z,59.17
2018-06-05T03:26:07.447Z,65.20
2018-06-05T03:28:35.952Z,68.73
2018-06-05T03:31:04.331Z,67.70
2018-06-05T03:33:32.462Z,66.13
2018-06-05T03:36:01.046Z,68.00
2018-06-05T03:38:29.424Z,63.70
2018-06-05T03:40:57.845Z,63.70
2018-06-05T03:43:26.356Z,62.40
2018-06-05T03:45:54.733Z,80.77
2018-06-05T03:48:23.154Z,66.80
2018-06-05T03:50:51.639Z,76.50
2018-06-05T03:53:20.025Z,80.47
2018-06-05T03:55:48.407Z,83.07
2018-06-05T03:58:16.895Z,76.20
2018-06-05T04:00:45.291Z,79.87
2018-06-05T04:03:13.757Z,80.50
2018-06-05T04:05:42.213Z,73.03
2018-06-05T04:08:10.736Z,80.50
2018-06-05T04:10:39.115Z,80.13
2018-06-05T04:13:07.493Z,69.70
2018-06-05T04:15:35.860Z,69.40
2018-06-05T04:18:04.259Z,73.47
2018-06-05T04:20:32.664Z,81.73
2018-06-05T04:23:01.063Z,77.43
2018-06-05T04:25:29.419Z,70.60
2018-06-05T04:27:57.935Z,66.50
2018-06-05T04:30:26.347Z,71.73
2018-06-05T04:32:54.795Z,74.30
2018-06-05T04:35:23.161Z,83.60
2018-06-05T04:37:51.540Z,78.97
2018-06-05T04:40:20.011Z,83.20
2018-06-05T04:42:48.498Z,75.90
2018-06-05T04:45:16.876Z,82.07
2018-06-05T04:47:45.447Z,94.57
2018-06-05T04:50:13.881Z,78.43
2018-06-05T04:52:42.260Z,83.07
2018-06-05T04:55:10.636Z,87.00
2018-06-05T04:57:39.118Z,83.17
2018-06-05T05:00:07.503Z,91.07
2018-06-05T05:02:35.887Z,90.27
2018-06-05T05:05:04.372Z,90.10
2018-06-05T05:07:32.881Z,83.73
2018-06-05T05:10:01.260Z,90.20
2018-06-05T05:12:29.709Z,85.03
2018-06-05T05:14:58.069Z,86.77
2018-06-05T05:17:26.448Z,87.73
2018-06-05T05:19:54.822Z,86.43
2018-06-05T05:22:23.192Z,80.87
2018-06-05T05:24:51.643Z,84.30
2018-06-05T05:27:20.036Z,86.67
2018-06-05T05:29:48.456Z,74.23
2018-06-05T05:32:16.898Z,85.80
2018-06-05T05:34:45.328Z,74.93
2018-06-05T05:37:13.691Z,91.10
2018-06-05T05:39:42.068Z,78.30
2018-06-05T05:42:10.424Z,75.77
2018-06-05T05:44:38.791Z,80.50
2018-06-05T05:47:07.467Z,88.13
2018-06-05T05:49:35.917Z,86.00
2018-06-05T05:52:04.492Z,79.63
2018-06-05T05:54:32.959Z,84.13
2018-06-05T05:57:01.357Z,80.43
2018-06-05T05:59:29.753Z,88.03
2018-06-05T06:01:58.171Z,81.93
2018-06-05T06:04:26.594Z,82.77
2018-06-05T06:06:55.009Z,85.10
2018-06-05T06:09:23.526Z,80.00
2018-06-05T06:11:51.900Z,81.93
2018-06-05T06:14:20.359Z,88.20
2018-06-05T06:16:48.741Z,77.90
2018-06-05T06:19:17.253Z,85.23
2018-06-05T06:21:45.612Z,85.90
2018-06-05T06:24:14.010Z,75.40
2018-06-05T06:26:42.364Z,79.50
2018-06-05T06:29:10.754Z,83.87
2018-06-05T06:31:39.128Z,84.17
2018-06-05T06:34:07.505Z,83.70
2018-06-05T06:36:35.861Z,86.43
2018-06-05T06:39:06.533Z,95.03
2018-06-05T06:41:34.899Z,81.30
2018-06-05T06:44:03.553Z,82.77
2018-06-05T06:46:31.936Z,84.23
2018-06-05T06:49:00.393Z,91.30
2018-06-05T06:51:28.775Z,90.47
2018-06-05T06:53:57.200Z,93.77
2018-06-05T06:56:25.568Z,85.27
2018-06-05T06:58:54.009Z,78.93
2018-06-05T07:01:22.419Z,84.00
2018-06-05T07:03:50.840Z,67.43
2018-06-05T07:06:19.367Z,55.83
2018-06-05T07:08:47.757Z,47.00
2018-06-05T07:11:16.668Z,50.87
2018-06-05T07:13:45.145Z,43.47
2018-06-05T07:16:13.517Z,44.10
2018-06-05T07:18:41.872Z,46.10
2018-06-05T07:21:10.255Z,45.30
2018-06-05T07:23:38.715Z,56.00
2018-06-05T07:26:07.111Z,48.87
2018-06-05T07:28:35.491Z,49.57
2018-06-05T07:31:03.875Z,47.10
2018-06-05T07:33:32.248Z,48.63
2018-06-05T07:36:00.624Z,53.33
2018-06-05T07:38:28.979Z,52.07
2018-06-05T07:40:57.348Z,60.67
2018-06-05T07:43:25.723Z,63.70
2018-06-05T07:45:54.096Z,66.93
2018-06-05T07:48:22.455Z,67.47
2018-06-05T07:50:50.828Z,61.93
2018-06-05T07:53:19.181Z,65.80
2018-06-05T07:55:47.584Z,66.93
2018-06-05T07:58:16.014Z,53.47
2018-06-05T08:00:44.469Z,62.73
2018-06-05T08:03:13.064Z,59.70
2018-06-05T08:05:41.459Z,61.00
2018-06-05T08:08:09.871Z,58.73
2018-06-05T08:10:38.267Z,54.30
2018-06-05T08:13:06.640Z,51.23
2018-06-05T08:15:35.016Z,57.63
2018-06-05T08:18:03.421Z,59.73
2018-06-05T08:20:31.820Z,59.67
2018-06-05T08:23:00.269Z,62.50
2018-06-05T08:25:28.676Z,58.93
2018-06-05T08:27:57.040Z,56.77
2018-06-05T08:30:25.448Z,55.87
2018-06-05T08:32:53.839Z,57.43
2018-06-05T08:35:22.211Z,61.60
2018-06-05T08:37:50.590Z,62.37
2018-06-05T08:40:19.254Z,63.03
2018-06-05T08:42:47.628Z,64.43
2018-06-05T08:45:16.042Z,67.47
2018-06-05T08:47:44.414Z,70.13
2018-06-05T08:50:12.807Z,63.03
2018-06-05T08:52:41.208Z,60.80
2018-06-05T08:55:09.605Z,72.13
2018-06-05T08:57:38.010Z,62.33
2018-06-05T09:00:06.456Z,63.57
2018-06-05T09:02:34.824Z,60.67
2018-06-05T09:05:03.350Z,57.03
2018-06-05T09:07:31.736Z,55.87
2018-06-05T09:10:00.090Z,57.60
2018-06-05T09:12:28.625Z,60.03
2018-06-05T09:14:56.976Z,50.67
2018-06-05T09:17:25.363Z,48.27
2018-06-05T09:19:53.752Z,54.30
2018-06-05T09:22:22.131Z,48.93
2018-06-05T09:24:50.487Z,56.67
2018-06-05T09:27:18.859Z,52.90
2018-06-05T09:29:47.241Z,58.37
2018-06-05T09:32:15.613Z,62.23
2018-06-05T09:34:44.080Z,53.90
2018-06-05T09:37:12.467Z,58.60
2018-06-05T09:39:40.929Z,58.20
2018-06-05T09:42:09.380Z,59.43
2018-06-05T09:44:37.841Z,54.80
2018-06-05T09:47:06.221Z,61.23
2018-06-05T09:49:34.632Z,61.93
2018-06-05T09:52:03.068Z,54.70
2018-06-05T09:54:31.438Z,58.50
2018-06-05T09:56:59.925Z,65.37
2018-06-05T09:59:28.300Z,67.33
2018-06-05T10:01:56.695Z,64.83
2018-06-05T10:04:25.099Z,59.80
2018-06-05T10:06:53.582Z,63.60
2018-06-05T10:09:22.043Z,61.10
2018-06-05T10:11:50.430Z,69.97
2018-06-05T10:14:19.646Z,63.33
2018-06-05T10:16:47.775Z,57.43
2018-06-05T10:19:16.159Z,65.53
2018-06-05T10:21:44.547Z,58.80
2018-06-05T10:24:12.908Z,73.50
2018-06-05T10:26:41.024Z,57.17
2018-06-05T10:29:09.391Z,57.67
2018-06-05T10:31:37.772Z,63.03
2018-06-05T10:34:06.180Z,64.53
2018-06-05T10:36:34.544Z,69.83
2018-06-05T10:39:03.015Z,79.03
2018-06-05T10:41:31.376Z,71.00
2018-06-05T10:43:59.783Z,77.77
2018-06-05T10:46:28.148Z,71.50
2018-06-05T10:48:56.250Z,66.20
2018-06-05T10:51:24.598Z,75.53
2018-06-05T10:53:52.967Z,74.73
2018-06-05T10:56:21.337Z,69.80
2018-06-05T10:58:49.875Z,71.97
2018-06-05T11:01:18.219Z,65.73
2018-06-05T11:03:46.695Z,65.90
2018-06-05T11:06:15.092Z,58.37
2018-06-05T11:08:43.481Z,63.20
2018-06-05T11:11:11.847Z,58.07
2018-06-05T11:13:40.255Z,64.77
2018-06-05T11:16:08.629Z,60.07
2018-06-05T11:18:37.019Z,60.20
2018-06-05T11:21:05.103Z,60.70
2018-06-05T11:23:33.487Z,61.90
2018-06-05T11:26:01.857Z,62.10
2018-06-05T11:28:30.241Z,60.03
2018-06-05T11:30:58.605Z,62.23
2018-06-05T11:33:26.983Z,59.53
2018-06-05T11:35:55.367Z,60.73
2018-06-05T11:38:23.744Z,56.77
2018-06-05T11:40:52.247Z,50.83
2018-06-05T11:43:20.611Z,54.30
2018-06-05T11:45:49.214Z,55.23
2018-06-05T11:48:17.620Z,60.73
2018-06-05T11:50:45.988Z,61.13
2018-06-05T11:53:14.368Z,64.60
2018-06-05T11:55:42.800Z,57.10
2018-06-05T11:58:11.245Z,57.63
2018-06-05T12:00:39.610Z,54.43
2018-06-05T12:03:07.988Z,54.87
2018-06-05T12:05:36.382Z,55.60
2018-06-05T12:08:04.787Z,52.77
2018-06-05T12:10:33.179Z,54.30
2018-06-05T12:13:01.607Z,64.93
2018-06-05T12:15:29.966Z,51.43
2018-06-05T12:17:58.384Z,56.00
2018-06-05T12:20:27.128Z,60.13
2018-06-05T12:22:55.508Z,58.83
2018-06-05T12:25:23.940Z,54.87
2018-06-05T12:27:52.327Z,56.73
2018-06-05T12:30:20.720Z,61.87
2018-06-05T12:32:49.120Z,52.03
2018-06-05T12:35:17.647Z,53.43
2018-06-05T12:37:46.034Z,51.23
2018-06-05T12:40:14.439Z,50.20
2018-06-05T12:42:42.831Z,48.27
2018-06-05T12:45:11.324Z,48.70
2018-06-05T12:47:39.679Z,48.80
2018-06-05T12:50:08.083Z,44.63
2018-06-05T12:52:36.457Z,46.77
2018-06-05T12:55:04.935Z,54.10
2018-06-05T12:57:33.031Z,50.23
2018-06-05T13:00:01.456Z,49.03
2018-06-05T13:02:29.935Z,47.93
2018-06-05T13:04:58.392Z,48.17
2018-06-05T13:07:26.773Z,46.53
2018-06-05T13:09:55.149Z,48.63
2018-06-05T13:12:23.516Z,50.73
2018-06-05T13:14:51.943Z,47.23
2018-06-05T13:17:20.425Z,45.60
2018-06-05T13:19:48.791Z,45.87
2018-06-05T13:22:17.305Z,49.43
2018-06-05T13:24:45.677Z,50.47
2018-06-05T13:27:14.031Z,48.67
2018-06-05T13:29:42.405Z,48.23
2018-06-05T13:32:10.499Z,59.20
2018-06-05T13:34:39.001Z,55.73
2018-06-05T13:37:07.176Z,55.63
2018-06-05T13:39:35.551Z,52.87
2018-06-05T13:42:03.914Z,51.20
2018-06-05T13:44:32.315Z,51.13
2018-06-05T13:47:00.712Z,55.23
2018-06-05T13:49:29.091Z,57.00
2018-06-05T13:51:57.451Z,53.03
2018-06-05T13:54:25.847Z,54.83
2018-06-05T13:56:54.244Z,62.70
2018-06-05T13:59:22.623Z,58.87
2018-06-05T14:01:50.982Z,58.60
2018-06-05T14:04:19.403Z,60.80
2018-06-05T14:06:47.795Z,55.33
2018-06-05T14:09:16.266Z,56.83
2018-06-05T14:11:44.559Z,60.90
2018-06-05T14:14:12.915Z,57.10
2018-06-05T14:16:41.332Z,61.80
2018-06-05T14:19:09.712Z,60.00
2018-06-05T14:21:37.802Z,58.07
2018-06-05T14:24:06.312Z,65.20
2018-06-05T14:26:34.671Z,59.13
2018-06-05T14:29:03.020Z,58.43
2018-06-05T14:31:31.429Z,57.43
2018-06-05T14:33:59.788Z,62.03
2018-06-05T14:36:28.168Z,60.40
2018-06-05T14:38:56.552Z,59.57
2018-06-05T14:41:26.079Z,59.50
2018-06-05T14:43:54.479Z,58.47
2018-06-05T14:46:22.861Z,58.67
2018-06-05T14:48:51.256Z,58.37
2018-06-05T14:51:19.639Z,61.80
2018-06-05T14:53:47.996Z,62.50
2018-06-05T14:56:16.421Z,63.97
2018-06-05T14:58:44.781Z,57.23
2018-06-05T15:01:13.191Z,63.10
2018-06-05T15:03:41.675Z,68.20
2018-06-05T15:06:10.109Z,60.40
2018-06-05T15:08:38.484Z,63.70
2018-06-05T15:11:06.853Z,62.37
2018-06-05T15:13:35.213Z,65.90
2018-06-05T15:16:03.628Z,64.37
2018-06-05T15:18:31.999Z,62.33
2018-06-05T15:21:00.388Z,64.10
2018-06-05T15:23:28.759Z,61.97
2018-06-05T15:25:57.140Z,60.70
2018-06-05T15:28:25.489Z,58.10
2018-06-05T15:30:53.902Z,57.50
2018-06-05T15:33:22.265Z,55.57
2018-06-05T15:35:50.654Z,56.77
2018-06-05T15:38:19.011Z,55.03
2018-06-05T15:40:47.390Z,55.33
2018-06-05T15:43:15.836Z,53.33
2018-06-05T15:45:44.228Z,59.17
2018-06-05T15:48:12.580Z,54.47
2018-06-05T15:50:41.061Z,51.80
2018-06-05T15:53:09.409Z,53.57
2018-06-05T15:55:37.806Z,53.33
2018-06-05T15:58:05.894Z,54.60
2018-06-05T16:00:34.003Z,55.07
2018-06-05T16:03:02.364Z,79.10
2018-06-05T16:05:30.761Z,55.73
2018-06-05T16:07:59.135Z,57.90
2018-06-05T16:10:27.489Z,51.90
2018-06-05T16:12:55.861Z,54.83
2018-06-05T16:15:24.244Z,56.97
2018-06-05T16:17:52.654Z,52.50
2018-06-05T16:20:21.049Z,56.80
2018-06-05T16:22:49.401Z,51.10
2018-06-05T16:25:17.507Z,62.40
2018-06-05T16:27:45.896Z,54.80
2018-06-05T16:30:14.253Z,47.33
2018-06-05T16:32:42.626Z,49.40
2018-06-05T16:35:11.012Z,49.53
2018-06-05T16:37:39.425Z,47.27
2018-06-05T16:40:07.800Z,49.47
2018-06-05T16:42:36.195Z,43.77
2018-06-05T16:45:04.583Z,51.23
2018-06-05T16:47:33.071Z,42.73
2018-06-05T16:50:01.410Z,47.30
2018-06-05T16:52:29.776Z,42.47
2018-06-05T16:54:58.128Z,51.70
2018-06-05T16:57:26.588Z,42.00
2018-06-05T16:59:54.666Z,41.83
2018-06-05T17:02:22.771Z,40.43
2018-06-05T17:04:53.356Z,43.07
2018-06-05T17:07:21.704Z,37.93
2018-06-05T17:09:50.069Z,42.10
2018-06-05T17:12:18.175Z,36.97
2018-06-05T17:14:46.239Z,42.23
2018-06-05T17:17:14.612Z,38.83
2018-06-05T17:19:42.972Z,35.83
2018-06-05T17:22:11.355Z,42.33
2018-06-05T17:24:39.708Z,34.10
2018-06-05T17:27:08.125Z,38.90
2018-06-05T17:29:36.514Z,39.60
2018-06-05T17:32:04.923Z,40.23
2018-06-05T17:34:33.291Z,43.67
2018-06-05T17:37:01.693Z,44.07
2018-06-05T17:39:30.051Z,37.83
2018-06-05T17:41:58.424Z,36.43
2018-06-05T17:44:26.787Z,33.77
2018-06-05T17:46:55.189Z,37.10
2018-06-05T17:49:23.562Z,38.47
2018-06-05T17:51:51.956Z,40.33
2018-06-05T17:54:20.307Z,36.33
2018-06-05T17:56:48.705Z,40.00
2018-06-05T17:59:17.059Z,34.77
2018-06-05T18:01:45.432Z,35.80
2018-06-05T18:04:13.805Z,38.07
2018-06-05T18:06:42.212Z,31.53
2018-06-05T18:09:10.651Z,41.63
2018-06-05T18:11:38.748Z,48.77
2018-06-05T18:14:07.179Z,39.17
2018-06-05T18:16:35.585Z,39.80
2018-06-05T18:19:03.989Z,46.00
2018-06-05T18:21:32.377Z,41.50
2018-06-05T18:24:00.811Z,42.20
2018-06-05T18:26:29.211Z,47.67
2018-06-05T18:28:57.660Z,41.13
2018-06-05T18:31:26.127Z,45.43
2018-06-05T18:33:54.580Z,48.57
2018-06-05T18:36:22.683Z,46.17
2018-06-05T18:38:51.115Z,43.07
2018-06-05T18:41:19.532Z,46.07
2018-06-05T18:43:47.929Z,50.40
2018-06-05T18:46:16.425Z,42.80
2018-06-05T18:48:44.800Z,41.40
2018-06-05T18:51:13.186Z,42.33
2018-06-05T18:53:41.579Z,43.97
2018-06-05T18:56:09.943Z,49.37
2018-06-05T18:58:38.419Z,47.73
2018-06-05T19:01:06.813Z,50.47
2018-06-05T19:03:35.204Z,46.43
2018-06-05T19:06:03.611Z,38.50
2018-06-05T19:08:32.033Z,44.10
2018-06-05T19:11:00.447Z,49.60
2018-06-05T19:13:28.861Z,46.70
2018-06-05T19:15:57.233Z,49.10
2018-06-05T19:18:25.335Z,49.83
2018-06-05T19:20:53.727Z,48.10
2018-06-05T19:23:22.133Z,45.67
2018-06-05T19:25:50.525Z,45.43
2018-06-05T19:28:18.920Z,46.47
2018-06-05T19:30:47.355Z,41.53
2018-06-05T19:33:15.793Z,45.60
2018-06-05T19:35:44.192Z,46.73
2018-06-05T19:38:12.579Z,48.77
2018-06-05T19:40:41.066Z,50.63
2018-06-05T19:43:09.468Z,46.03
2018-06-05T19:45:38.675Z,48.50
2018-06-05T19:48:07.084Z,49.47
2018-06-05T19:50:35.460Z,52.90
2018-06-05T19:53:03.856Z,47.50
2018-06-05T19:55:32.356Z,52.23
2018-06-05T19:58:00.848Z,58.07
2018-06-05T20:00:29.252Z,52.13
2018-06-05T20:02:57.656Z,52.87
2018-06-05T20:05:26.115Z,50.10
2018-06-05T20:07:54.471Z,52.63
2018-06-05T20:10:22.839Z,45.33
2018-06-05T20:12:51.354Z,54.17
2018-06-05T20:15:19.719Z,54.27
2018-06-05T20:17:48.120Z,49.57
2018-06-05T20:20:16.500Z,51.03
2018-06-05T20:22:44.861Z,52.57
2018-06-05T20:25:13.248Z,50.97
2018-06-05T20:27:41.611Z,54.20
2018-06-05T20:30:09.998Z,51.03
2018-06-05T20:32:38.367Z,46.07
2018-06-05T20:35:06.747Z,50.17
2018-06-05T20:37:35.129Z,47.07
2018-06-05T20:40:03.554Z,53.17
2018-06-05T20:42:31.925Z,50.87
2018-06-05T20:45:00.957Z,50.67
2018-06-05T20:47:29.336Z,51.33
2018-06-05T20:49:57.732Z,47.03
2018-06-05T20:52:26.096Z,44.97
2018-06-05T20:54:54.480Z,46.10
2018-06-05T20:57:22.834Z,43.63
2018-06-05T20:59:51.212Z,45.87
2018-06-05T21:02:19.584Z,52.87
2018-06-05T21:04:47.968Z,49.80
2018-06-05T21:07:16.464Z,47.00
2018-06-05T21:09:44.847Z,53.10
2018-06-05T21:12:13.210Z,47.13
2018-06-05T21:14:41.614Z,49.93
2018-06-05T21:17:09.973Z,54.33
2018-06-05T21:19:38.331Z,45.57
2018-06-05T21:22:06.700Z,47.53
2018-06-05T21:24:35.088Z,47.93
2018-06-05T21:27:03.468Z,51.00
2018-06-05T21:29:31.860Z,50.20
2018-06-05T21:32:00.216Z,47.07
2018-06-05T21:34:28.588Z,53.20
2018-06-05T21:36:56.960Z,44.17
2018-06-05T21:39:25.344Z,49.53
2018-06-05T21:41:53.705Z,53.40
2018-06-05T21:44:22.092Z,46.80
2018-06-05T21:46:50.472Z,44.07
2018-06-05T21:49:18.860Z,49.07
2018-06-05T21:51:47.230Z,52.67
2018-06-05T21:54:15.615Z,48.87
2018-06-05T21:56:44.016Z,49.13
2018-06-05T21:59:12.405Z,48.50
2018-06-05T22:01:40.763Z,46.43
2018-06-05T22:04:09.144Z,44.83
2018-06-05T22:06:37.525Z,49.60
2018-06-05T22:09:08.164Z,50.67
2018-06-05T22:11:36.544Z,50.00
2018-06-05T22:14:04.943Z,56.87
2018-06-05T22:16:33.394Z,46.40
2018-06-05T22:19:01.829Z,48.30
2018-06-05T22:21:30.233Z,45.47
2018-06-05T22:23:58.647Z,50.60
2018-06-05T22:26:27.032Z,51.83
2018-06-05T22:28:55.429Z,54.10
2018-06-05T22:31:23.811Z,51.90
2018-06-05T22:33:52.248Z,58.93
2018-06-05T22:36:20.648Z,56.33
2018-06-05T22:38:49.131Z,48.13
2018-06-05T22:41:17.560Z,47.10
2018-06-05T22:43:45.953Z,55.03
2018-06-05T22:46:14.378Z,54.57
2018-06-05T22:48:42.753Z,54.27
2018-06-05T22:51:11.187Z,60.83
2018-06-05T22:53:39.586Z,54.30
2018-06-05T22:56:08.067Z,54.73
2018-06-05T22:58:36.460Z,52.60
2018-06-05T23:01:04.873Z,52.53
2018-06-05T23:03:33.264Z,48.20
2018-06-05T23:06:01.656Z,57.07
2018-06-05T23:08:30.025Z,57.00
2018-06-05T23:10:58.419Z,53.37
2018-06-05T23:13:26.841Z,56.00
2018-06-05T23:15:55.221Z,60.30
2018-06-05T23:18:23.626Z,58.37
2018-06-05T23:20:52.152Z,56.37
2018-06-05T23:23:20.526Z,53.97
2018-06-05T23:25:48.916Z,52.60
2018-06-05T23:28:17.284Z,56.70
2018-06-05T23:30:46.370Z,53.80
2018-06-05T23:33:14.734Z,54.60
2018-06-05T23:35:43.157Z,49.07
2018-06-05T23:38:11.516Z,59.17
2018-06-05T23:40:39.907Z,58.23
2018-06-05T23:43:08.323Z,47.97
2018-06-05T23:45:36.720Z,65.57
2018-06-05T23:48:05.219Z,55.07
2018-06-05T23:50:33.623Z,58.60
2018-06-05T23:53:03.027Z,55.67
2018-06-05T23:55:31.409Z,56.70
2018-06-05T23:57:59.761Z,59.87
